Time;durP1;ratioP1;P1;durP2;ratioP2;P2;SDS_P1;SDS_P2;PMS_P1;PMS_P2;Temp;Humidity;BMP_temperature;BMP_pressure;BME280_temperature;BME280_humidity;BME280_pressure;Samples;Min_cycle;Max_cycle;Signal;HPM_P1;HPM_P2
2021/10/12 00:02:31;;;;;;;;;90.67;75.67;;;;;9.52;63.16;101347.28;5054245;28;8868;-73
2021/10/12 00:05:27;;;;;;;;;92.33;77.00;;;;;9.40;62.93;101342.28;5053927;28;8859;-73
2021/10/12 00:08:22;;;;;;;;;92.33;85.00;;;;;9.32;63.49;101343.00;5042119;28;8843;-73
2021/10/12 00:11:18;;;;;;;;;92.67;79.67;;;;;9.30;63.99;101341.66;5054182;28;8848;-74
2021/10/12 00:14:14;;;;;;;;;96.67;88.67;;;;;9.19;64.72;101336.34;5054137;28;9002;-73
2021/10/12 00:17:11;;;;;;;;;99.33;87.00;;;;;9.18;64.73;101334.69;5040754;28;8979;-73
2021/10/12 00:20:07;;;;;;;;;95.00;82.67;;;;;9.25;64.65;101327.97;5040338;28;8840;-73
2021/10/12 00:23:06;;;;;;;;;92.33;77.67;;;;;9.27;64.31;101329.28;5052761;28;8839;-73
2021/10/12 00:26:01;;;;;;;;;108.67;87.00;;;;;9.15;65.35;101327.03;5053304;28;8879;-73
2021/10/12 00:28:57;;;;;;;;;93.00;77.67;;;;;9.15;65.16;101326.22;5042910;28;8846;-73
2021/10/12 00:31:52;;;;;;;;;93.67;84.33;;;;;9.11;65.95;101337.03;5020558;28;8881;-73
2021/10/12 00:34:21;;;;;;;;;114.67;89.67;;;;;9.07;65.69;101333.28;5017333;28;8854;-73
2021/10/12 00:37:16;;;;;;;;;92.00;81.33;;;;;9.05;66.27;101330.00;5033698;28;8851;-73
2021/10/12 00:40:12;;;;;;;;;115.00;97.67;;;;;9.11;66.35;101333.47;5033530;28;8854;-73
2021/10/12 00:43:08;;;;;;;;;88.33;76.67;;;;;9.13;66.36;101334.00;5033468;28;8846;-73
2021/10/12 00:46:05;;;;;;;;;98.33;80.67;;;;;9.14;66.54;101322.66;5032928;28;8873;-73
2021/10/12 00:48:34;;;;;;;;;95.00;87.00;;;;;9.05;66.78;101332.78;5034361;28;9583;-73
2021/10/12 00:51:29;;;;;;;;;110.67;95.33;;;;;9.03;67.28;101335.00;5053107;28;8940;-73
2021/10/12 00:54:25;;;;;;;;;96.00;81.67;;;;;9.06;67.51;101337.16;5033189;28;9699;-73
2021/10/12 00:57:20;;;;;;;;;101.00;89.33;;;;;8.90;67.52;101338.56;5033864;28;9659;-73
2021/10/12 01:00:16;;;;;;;;;101.33;88.67;;;;;9.01;66.44;101328.16;5038372;28;8844;-73
2021/10/12 01:02:46;;;;;;;;;98.33;86.67;;;;;8.97;66.85;101322.44;5054084;28;8869;-73
2021/10/12 01:05:42;;;;;;;;;101.67;90.67;;;;;8.83;67.49;101313.31;5053570;28;8946;-73
2021/10/12 01:08:37;;;;;;;;;105.00;97.67;;;;;8.85;67.46;101317.41;5052928;28;8837;-72
2021/10/12 01:11:34;;;;;;;;;112.67;102.67;;;;;8.89;66.93;101314.84;5052796;28;8853;-73
2021/10/12 01:14:15;;;;;;;;;102.67;93.33;;;;;8.81;67.08;101321.06;5038139;28;9575;-73
2021/10/12 01:17:11;;;;;;;;;109.67;91.00;;;;;8.85;66.74;101320.16;5053365;28;8873;-73
2021/10/12 01:20:10;;;;;;;;;99.67;87.33;;;;;8.72;67.03;101307.16;5052780;28;8821;-73
2021/10/12 01:23:06;;;;;;;;;110.00;93.33;;;;;8.68;67.20;101313.59;5052332;28;8845;-72
2021/10/12 01:26:02;;;;;;;;;107.33;93.33;;;;;8.76;66.58;101305.44;5052480;28;8877;-72
2021/10/12 01:28:57;;;;;;;;;124.67;104.67;;;;;8.67;66.88;101301.75;5053378;28;9587;-72
2021/10/12 01:31:53;;;;;;;;;118.33;99.00;;;;;8.56;67.32;101311.31;5052620;28;8838;-72
2021/10/12 01:34:21;;;;;;;;;118.67;106.00;;;;;8.40;67.94;101307.19;5053782;28;8911;-72
2021/10/12 01:37:16;;;;;;;;;101.33;91.67;;;;;8.46;67.67;101308.72;5033416;28;8850;-72
2021/10/12 01:40:13;;;;;;;;;112.00;94.33;;;;;8.51;67.37;101298.44;5032436;28;8870;-73
2021/10/12 01:43:09;;;;;;;;;121.33;99.00;;;;;8.49;67.51;101306.19;5032693;28;8842;-73
2021/10/12 01:46:06;;;;;;;;;104.33;95.67;;;;;8.42;67.51;101303.00;5032117;28;8853;-72
2021/10/12 01:49:02;;;;;;;;;96.00;77.33;;;;;8.48;67.42;101303.72;5020002;28;9632;-72
2021/10/12 01:51:57;;;;;;;;;108.67;97.00;;;;;8.51;67.64;101292.09;5032152;28;8944;-73
2021/10/12 01:54:53;;;;;;;;;110.67;93.67;;;;;8.55;67.19;101282.09;5048975;28;8857;-72
2021/10/12 01:57:49;;;;;;;;;101.00;94.00;;;;;8.37;67.79;101277.47;5052210;28;8842;-73
2021/10/12 02:00:45;;;;;;;;;99.00;83.67;;;;;8.22;68.02;101287.59;5051725;28;8849;-73
2021/10/12 02:03:40;;;;;;;;;89.00;74.00;;;;;8.28;67.95;101272.63;5040117;28;8863;-73
2021/10/12 02:06:36;;;;;;;;;103.00;94.00;;;;;8.13;68.50;101281.13;5051757;28;8860;-73
2021/10/12 02:09:04;;;;;;;;;99.33;79.33;;;;;8.17;68.48;101284.09;5053229;28;8945;-72
2021/10/12 02:11:59;;;;;;;;;103.33;89.33;;;;;8.13;68.80;101277.53;5052728;28;8858;-73
2021/10/12 02:14:55;;;;;;;;;106.00;84.00;;;;;7.97;69.53;101277.78;5038316;28;8819;-72
2021/10/12 02:17:30;;;;;;;;;101.33;86.00;;;;;7.92;69.72;101272.38;5052896;28;8831;-72
2021/10/12 02:20:27;;;;;;;;;99.00;85.33;;;;;7.72;70.89;101269.91;5051529;28;8848;-72
2021/10/12 02:22:56;;;;;;;;;93.33;71.67;;;;;7.80;70.61;101280.25;5052879;28;8914;-73
2021/10/12 02:25:52;;;;;;;;;94.67;79.67;;;;;7.66;71.06;101282.09;5038487;28;8885;-73
2021/10/12 02:28:47;;;;;;;;;98.00;87.00;;;;;7.61;71.67;101283.00;5038519;28;8844;-73
2021/10/12 02:31:43;;;;;;;;;97.00;83.33;;;;;7.71;71.19;101274.59;5051805;28;9582;-73
2021/10/12 02:34:38;;;;;;;;;95.33;77.33;;;;;7.71;71.07;101276.53;5039131;28;8836;-73
2021/10/12 02:37:06;;;;;;;;;100.00;87.33;;;;;7.66;71.37;101260.88;5035212;28;8996;-73
2021/10/12 02:40:02;;;;;;;;;100.00;80.67;;;;;7.65;71.61;101259.25;5037940;28;8867;-73
2021/10/12 02:42:58;;;;;;;;;99.67;88.33;;;;;7.65;71.94;101251.00;5038355;28;8974;-73
2021/10/12 02:45:53;;;;;;;;;98.33;83.67;;;;;7.46;72.49;101240.00;5052110;28;8863;-73
2021/10/12 02:48:49;;;;;;;;;100.00;83.33;;;;;7.54;72.13;101238.50;5038232;28;8835;-73
2021/10/12 02:51:44;;;;;;;;;91.67;79.33;;;;;7.52;71.84;101230.56;5051851;28;8848;-73
2021/10/12 02:54:40;;;;;;;;;97.00;82.67;;;;;7.60;71.24;101233.75;5051500;28;8843;-73
2021/10/12 02:57:35;;;;;;;;;104.67;89.00;;;;;7.53;71.94;101228.63;5052289;28;9686;-73
2021/10/12 03:00:31;;;;;;;;;116.33;96.67;;;;;7.52;71.95;101227.81;5051567;28;9629;-73
2021/10/12 03:03:27;;;;;;;;;122.33;105.33;;;;;7.70;71.95;101226.16;5051110;28;8828;-72
2021/10/12 03:06:22;;;;;;;;;131.75;108.25;;;;;7.87;71.82;101233.88;5038355;28;8856;-72
2021/10/12 03:08:50;;;;;;;;;107.00;95.67;;;;;7.67;72.12;101221.25;5052760;28;8851;-72
2021/10/12 03:11:47;;;;;;;;;111.67;93.33;;;;;7.72;72.06;101225.84;5038354;28;8851;-73
2021/10/12 03:14:14;;;;;;;;;112.67;88.33;;;;;7.63;72.18;101222.97;5055187;28;8848;-73
2021/10/12 03:17:10;;;;;;;;;114.00;94.33;;;;;7.56;72.28;101235.44;5055090;28;9593;-73
2021/10/12 03:19:38;;;;;;;;;97.67;83.33;;;;;7.40;73.13;101237.59;5056068;28;9597;-74
2021/10/12 03:22:34;;;;;;;;;126.33;100.00;;;;;7.38;72.94;101229.66;5055434;28;9704;-74
2021/10/12 03:25:29;;;;;;;;;107.33;89.00;;;;;7.30;73.20;101226.75;5054629;28;8879;-73
2021/10/12 03:27:57;;;;;;;;;48.33;36.67;;;;;7.25;73.03;101236.69;5056181;28;8859;-73
2021/10/12 03:30:53;;;;;;;;;102.67;91.33;;;;;6.98;74.39;101228.25;5055697;28;8852;-73
2021/10/12 03:33:48;;;;;;;;;115.67;94.33;;;;;7.24;73.41;101237.81;5041619;28;8820;-73
2021/10/12 03:36:44;;;;;;;;;126.00;94.33;;;;;7.33;72.47;101237.16;5054492;28;8832;-73
2021/10/12 03:39:40;;;;;;;;;91.33;80.00;;;;;7.52;71.24;101240.75;5054766;28;8862;-73
2021/10/12 03:42:35;;;;;;;;;106.33;89.67;;;;;7.51;70.41;101239.94;5054035;28;8858;-73
2021/10/12 03:45:31;;;;;;;;;98.67;83.00;;;;;7.43;70.80;101240.56;5034876;28;8842;-73
2021/10/12 03:48:26;;;;;;;;;95.00;74.67;;;;;7.59;70.10;101249.47;5045316;28;8857;-73
2021/10/12 03:50:55;;;;;;;;;90.00;66.67;;;;;7.51;69.85;101247.34;5038042;28;8948;-73
2021/10/12 03:53:23;;;;;;;;;82.67;64.67;;;;;7.62;69.30;101256.28;5055397;28;8904;-73
2021/10/12 03:56:18;;;;;;;;;79.00;61.33;;;;;7.64;69.19;101257.63;5040883;28;8864;-73
2021/10/12 03:59:14;;;;;;;;;68.67;56.00;;;;;7.58;69.47;101252.47;5053582;28;8950;-72
2021/10/12 04:02:09;;;;;;;;;85.67;67.33;;;;;7.14;71.36;101257.19;5045543;28;8858;-73
2021/10/12 04:05:05;;;;;;;;;85.33;67.33;;;;;7.11;72.09;101249.53;5038709;28;8858;-73
2021/10/12 04:08:01;;;;;;;;;81.67;65.33;;;;;7.39;71.36;101247.78;5054078;28;8848;-73
2021/10/12 04:10:29;;;;;;;;;64.00;55.00;;;;;7.43;71.17;101251.56;5054269;28;8880;-72
2021/10/12 04:13:25;;;;;;;;;77.00;62.00;;;;;7.56;70.40;101251.97;5054912;28;8917;-72
2021/10/12 04:16:20;;;;;;;;;71.33;58.00;;;;;7.55;70.83;101253.91;5040246;28;9592;-72
2021/10/12 04:18:48;;;;;;;;;73.33;58.67;;;;;7.45;71.34;101241.13;5055152;28;8867;-72
2021/10/12 04:21:17;;;;;;;;;65.33;53.67;;;;;7.35;72.10;101249.50;5037496;28;8862;-73
2021/10/12 04:23:59;;;;;;;;;82.00;65.00;;;;;7.59;71.37;101243.09;5054355;28;8882;-72
2021/10/12 04:26:56;;;;;;;;;79.67;63.67;;;;;7.74;70.91;101240.13;5041512;28;8928;-73
2021/10/12 04:29:24;;;;;;;;;79.33;60.67;;;;;7.84;70.51;101242.75;5036769;28;8934;-72
2021/10/12 04:32:19;;;;;;;;;92.33;67.67;;;;;7.86;70.58;101234.19;5052898;28;11612;-73
2021/10/12 04:35:15;;;;;;;;;80.67;63.33;;;;;7.90;70.50;101233.28;5052861;28;8950;-72
2021/10/12 04:38:10;;;;;;;;;69.00;56.00;;;;;7.91;70.48;101234.94;5053313;28;8840;-75
2021/10/12 04:40:40;;;;;;;;;77.33;60.00;;;;;7.93;70.13;101226.34;5036766;28;8839;-73
2021/10/12 04:43:36;;;;;;;;;101.33;72.00;;;;;8.13;69.85;101222.44;5039191;28;8877;-71
2021/10/12 04:46:31;;;;;;;;;84.33;65.33;;;;;8.22;69.45;101229.72;5053858;28;9506;-70
2021/10/12 04:49:27;;;;;;;;;77.00;61.00;;;;;8.31;69.32;101229.84;5053169;28;8952;-70
2021/10/12 04:52:22;;;;;;;;;75.33;58.00;;;;;8.39;69.89;101225.63;5053207;28;8861;-70
2021/10/12 04:54:58;;;;;;;;;77.33;60.67;;;;;8.44;70.42;101220.84;5037755;28;8917;-71
2021/10/12 04:57:26;;;;;;;;;7.50;6.00;;;;;8.57;70.71;101222.78;5054077;28;12424;-71
2021/10/12 04:59:54;;;;;;;;;67.75;56.25;;;;;8.74;70.94;101218.59;5053916;28;11507;-71
2021/10/12 05:02:23;;;;;;;;;71.25;58.25;;;;;8.83;70.73;101225.88;5053717;28;11687;-69
2021/10/12 05:04:55;;;;;;;;;82.33;63.33;;;;;8.89;70.95;101223.81;5036041;28;11610;-71
2021/10/12 05:07:24;;;;;;;;;77.00;56.50;;;;;8.96;70.59;101220.66;5053693;28;11612;-71
2021/10/12 05:09:54;;;;;;;;;69.67;57.67;;;;;8.99;70.30;101215.34;5035954;28;11675;-72
2021/10/12 05:12:22;;;;;;;;;85.33;64.00;;;;;9.13;69.64;101215.34;5031856;28;11625;-71
2021/10/12 05:15:25;;;;;;;;;86.33;64.33;;;;;9.22;69.75;101220.94;5032565;28;8846;-69
2021/10/12 05:18:24;;;;;;;;;66.25;55.25;;;;;9.39;69.83;101219.16;5032527;28;11659;-70
2021/10/12 05:20:52;;;;;;;;;72.50;58.00;;;;;9.50;69.77;101217.00;5033537;28;11625;-70
2021/10/12 05:23:40;;;;;;;;;91.33;70.33;;;;;9.56;69.26;101206.66;5018575;28;11637;-71
2021/10/12 05:26:10;;;;;;;;;79.67;60.67;;;;;9.73;68.32;101215.06;5033595;28;8940;-71
2021/10/12 05:29:05;;;;;;;;;78.33;62.00;;;;;9.91;67.82;101218.81;5032363;28;8842;-71
2021/10/12 05:31:33;;;;;;;;;90.67;70.33;;;;;9.99;66.90;101216.09;5033313;28;11641;-71
2021/10/12 05:34:00;;;;;;;;;81.50;63.25;;;;;10.08;66.99;101216.16;5033272;28;12390;-72
2021/10/12 05:36:33;;;;;;;;;92.33;58.33;;;;;10.20;67.06;101216.44;5015221;28;11726;-71
2021/10/12 05:39:01;;;;;;;;;75.25;60.00;;;;;10.37;66.73;101217.69;5033287;28;8846;-72
2021/10/12 05:41:42;;;;;;;;;76.25;60.75;;;;;10.47;66.01;101214.66;5033221;28;11743;-71
2021/10/12 05:44:10;;;;;;;;;82.75;63.25;;;;;10.64;65.51;101211.97;5044406;28;12430;-72
2021/10/12 05:46:40;;;;;;;;;82.00;67.25;;;;;10.84;65.50;101210.59;5033031;28;11631;-69
2021/10/12 05:49:37;;;;;;;;;79.75;60.50;;;;;10.68;66.15;101198.31;5026914;28;11607;-68
2021/10/12 05:52:35;;;;;;;;;74.00;58.75;;;;;11.07;65.10;101200.25;5051844;28;12442;-68
2021/10/12 05:56:17;;;;;;;;;63.75;51.75;;;;;11.24;65.93;101205.00;5038281;28;11658;-68
2021/10/12 05:58:49;;;;;;;;;66.50;54.25;;;;;11.20;66.04;101212.34;5050610;28;11686;-68
2021/10/12 06:01:20;;;;;;;;;72.75;56.75;;;;;11.21;65.50;101206.47;5035332;28;11085;-70
2021/10/12 06:04:15;;;;;;;;;69.75;54.25;;;;;11.16;66.00;101212.16;5051397;28;11792;-71
2021/10/12 06:07:11;;;;;;;;;52.75;45.50;;;;;11.39;65.21;101212.84;5051559;28;11632;-70
2021/10/12 06:10:07;;;;;;;;;54.50;43.75;;;;;11.37;65.42;101204.03;5050411;28;11603;-69
2021/10/12 06:12:50;;;;;;;;;51.25;44.00;;;;;11.80;64.58;101206.00;5059602;28;11596;-70
2021/10/12 06:15:17;;;;;;;;;40.50;36.25;;;;;11.74;64.90;101207.34;5052414;28;11602;-70
2021/10/12 06:18:13;;;;;;;;;48.00;39.75;;;;;11.81;64.88;101204.91;5050916;28;11668;-70
2021/10/12 06:21:09;;;;;;;;;30.50;30.50;;;;;12.13;64.03;101204.41;5051065;28;11617;-70
2021/10/12 06:24:05;;;;;;;;;53.25;45.00;;;;;12.12;64.70;101197.22;5050699;28;11497;-69
2021/10/12 06:26:52;;;;;;;;;59.50;47.50;;;;;12.16;64.08;101198.19;5046942;28;11689;-70
2021/10/12 06:29:48;;;;;;;;;49.25;42.50;;;;;12.27;64.19;101198.66;5031314;28;11641;-70
2021/10/12 06:32:16;;;;;;;;;51.25;44.50;;;;;12.29;64.12;101196.38;5032915;28;11587;-69
2021/10/12 06:35:12;;;;;;;;;48.75;42.75;;;;;12.73;63.19;101197.84;5050943;28;12298;-70
2021/10/12 06:38:07;;;;;;;;;51.25;44.00;;;;;13.01;62.13;101197.38;5051002;28;12320;-70
2021/10/12 06:41:03;;;;;;;;;53.50;44.50;;;;;13.16;62.31;101196.81;5037295;28;11566;-70
2021/10/12 06:43:59;;;;;;;;;52.00;44.75;;;;;13.37;61.82;101196.88;5051033;28;11532;-70
2021/10/12 06:46:54;;;;;;;;;45.25;37.50;;;;;13.57;61.91;101203.56;5051593;28;12325;-70
2021/10/12 06:49:22;;;;;;;;;39.25;36.50;;;;;13.89;60.83;101188.13;5034412;28;11625;-70
2021/10/12 06:52:17;;;;;;;;;41.75;38.00;;;;;13.98;60.29;101204.72;5036502;28;11999;-70
2021/10/12 06:55:16;;;;;;;;;45.25;40.50;;;;;13.87;61.26;101195.97;5047469;28;11588;-70
2021/10/12 06:58:12;;;;;;;;;44.25;37.50;;;;;14.22;59.91;101198.44;5043848;28;11525;-70
2021/10/12 07:01:07;;;;;;;;;40.75;37.00;;;;;14.48;59.69;101187.84;5039981;28;11333;-69
2021/10/12 07:03:35;;;;;;;;;44.50;39.50;;;;;14.73;59.12;101186.75;5036741;28;11310;-69
2021/10/12 07:06:31;;;;;;;;;56.75;45.75;;;;;14.90;58.70;101185.69;5048982;28;11242;-70
2021/10/12 07:09:16;;;;;;;;;39.50;36.50;;;;;15.01;58.87;101186.03;5055328;28;12320;-70
2021/10/12 07:12:12;;;;;;;;;55.25;42.25;;;;;15.05;58.73;101186.97;5060554;28;10743;-70
2021/10/12 07:14:39;;;;;;;;;51.00;43.50;;;;;15.06;58.76;101191.38;5057664;28;11237;-69
2021/10/12 07:17:35;;;;;;;;;46.50;40.25;;;;;14.95;59.03;101176.28;5056357;28;11111;-70
2021/10/12 07:20:31;;;;;;;;;43.50;39.00;;;;;15.21;58.33;101189.84;5054250;28;11757;-70
2021/10/12 07:23:26;;;;;;;;;43.75;37.50;;;;;15.23;58.41;101190.31;5059842;28;10849;-70
2021/10/12 07:26:22;;;;;;;;;36.75;34.50;;;;;15.43;58.87;101186.56;5074822;28;10678;-69
2021/10/12 07:29:18;;;;;;;;;35.75;34.50;;;;;15.80;58.85;101178.94;5061599;28;10528;-70
2021/10/12 07:32:14;;;;;;;;;26.50;25.00;;;;;16.07;58.22;101171.72;5063675;28;10238;-70
2021/10/12 07:34:42;;;;;;;;;29.75;29.75;;;;;16.18;57.95;101180.41;5055621;28;10173;-70
2021/10/12 07:37:24;;;;;;;;;34.75;33.00;;;;;16.26;57.71;101170.25;5055144;28;10062;-70
2021/10/12 07:40:20;;;;;;;;;58.75;48.00;;;;;16.31;59.64;101172.75;5055586;28;10032;-70
2021/10/12 07:43:16;;;;;;;;;25.75;25.75;;;;;16.44;57.96;101171.50;5065777;28;11258;-70
2021/10/12 07:46:11;;;;;;;;;25.75;24.00;;;;;16.45;57.48;101159.16;5054202;28;9628;-70
2021/10/12 07:49:07;;;;;;;;;24.75;21.75;;;;;16.38;57.76;101154.22;5072716;28;9796;-69
2021/10/12 07:52:07;;;;;;;;;25.50;25.50;;;;;16.38;57.85;101157.00;5073962;28;9607;-71
2021/10/12 07:58:01;;;;;;;;;20.50;18.50;;;;;16.85;56.94;101153.41;5074872;28;9785;-71
2021/10/12 08:00:31;;;;;;;;;28.25;26.75;;;;;16.79;56.53;101156.84;5074750;28;9599;-71
2021/10/12 08:03:27;;;;;;;;;29.25;29.25;;;;;16.82;57.05;101156.94;5073833;28;9612;-70
2021/10/12 08:06:22;;;;;;;;;36.50;33.75;;;;;17.17;56.79;101151.38;5061157;28;9710;-69
2021/10/12 08:09:18;;;;;;;;;29.50;29.50;;;;;17.02;56.13;101149.41;5074500;28;10039;-70
2021/10/12 08:12:14;;;;;;;;;45.50;39.25;;;;;17.33;57.46;101142.97;5073985;28;9567;-71
2021/10/12 08:15:11;;;;;;;;;29.67;28.33;;;;;17.81;54.85;101135.19;5062823;28;10448;-71
2021/10/12 08:18:07;;;;;;;;;33.33;30.00;;;;;18.16;54.42;101121.06;5053729;28;9391;-71
2021/10/12 08:21:02;;;;;;;;;27.67;27.33;;;;;18.33;52.86;101119.78;5054414;28;9384;-70
2021/10/12 08:24:00;;;;;;;;;28.33;26.67;;;;;18.28;53.10;101126.50;5054141;28;9266;-71
2021/10/12 08:26:55;;;;;;;;;27.00;26.67;;;;;18.49;52.39;101114.84;5054769;28;9358;-71
2021/10/12 08:29:23;;;;;;;;;29.00;29.00;;;;;18.42;52.70;101109.13;5054331;28;9435;-71
2021/10/12 08:32:18;;;;;;;;;28.67;28.00;;;;;18.56;52.50;101114.16;5054076;28;9243;-72
2021/10/12 08:34:46;;;;;;;;;31.33;30.33;;;;;18.58;52.62;101115.41;5051767;28;9278;-71
2021/10/12 08:37:42;;;;;;;;;31.33;29.67;;;;;18.63;52.20;101103.06;5042934;28;9195;-70
2021/10/12 08:40:38;;;;;;;;;38.33;34.00;;;;;18.94;52.03;101101.16;5053935;28;9154;-72
2021/10/12 08:43:35;;;;;;;;;29.00;28.67;;;;;19.10;51.64;101096.22;5052692;28;9426;-71
2021/10/12 08:46:04;;;;;;;;;30.00;29.33;;;;;19.50;50.71;101087.13;5053882;28;9003;-72
2021/10/12 08:48:59;;;;;;;;;31.00;31.00;;;;;19.31;50.96;101087.25;5053084;28;8928;-71
2021/10/12 08:51:55;;;;;;;;;29.67;29.67;;;;;19.18;50.75;101086.72;5051945;28;8989;-70
2021/10/12 08:54:52;;;;;;;;;27.67;27.67;;;;;19.69;50.65;101086.16;5052733;28;9003;-71
2021/10/12 08:57:48;;;;;;;;;26.50;26.50;;;;;19.63;49.97;101077.28;5052249;28;8911;-72
2021/10/12 09:00:44;;;;;;;;;28.50;28.50;;;;;19.68;49.48;101079.72;5052356;28;8898;-71
2021/10/12 09:04:07;;;;;;;;;26.75;26.75;;;;;19.74;50.36;101060.56;5039961;28;8860;-71
2021/10/12 09:07:01;;;;;;;;;27.75;27.75;;;;;20.20;48.93;101066.63;5045146;28;8877;-71
2021/10/12 09:09:35;;;;;;;;;32.75;31.75;;;;;20.49;48.00;101064.91;5016421;28;8862;-72
2021/10/12 09:12:45;;;;;;;;;29.50;29.50;;;;;19.47;50.13;101059.00;5032199;28;8935;-71
2021/10/12 09:15:40;;;;;;;;;26.00;26.00;;;;;20.15;49.26;101047.31;5019293;28;8996;-71
2021/10/12 09:18:56;;;;;;;;;30.50;30.00;;;;;20.42;49.34;101039.53;5032160;28;9636;-71
2021/10/12 09:21:53;;;;;;;;;32.50;31.00;;;;;20.71;47.59;101040.56;5049803;28;8868;-71
2021/10/12 09:24:23;;;;;;;;;27.75;27.75;;;;;21.10;46.72;101040.00;5053331;28;8862;-70
2021/10/12 09:27:10;;;;;;;;;28.75;28.75;;;;;20.58;47.86;101024.44;5053545;28;8856;-69
2021/10/12 09:32:40;;;;;;;;;25.00;24.25;;;;;21.00;47.32;101019.03;5051127;28;8898;-71
2021/10/12 09:35:36;;;;;;;;;26.00;24.00;;;;;21.24;47.18;101019.53;5038491;28;8882;-70
2021/10/12 09:38:13;;;;;;;;;30.50;30.00;;;;;21.40;46.83;101017.25;5035822;28;8848;-70
2021/10/12 09:41:08;;;;;;;;;17.25;17.25;;;;;21.72;46.20;101006.06;5040379;28;8851;-71
2021/10/12 09:44:15;;;;;;;;;29.75;28.00;;;;;22.17;44.75;101004.53;5033130;28;8901;-70
2021/10/12 09:47:13;;;;;;;;;25.75;25.75;;;;;21.72;45.62;101003.25;5032257;28;8943;-70
2021/10/12 09:50:11;;;;;;;;;29.00;29.00;;;;;21.87;45.52;100996.44;5031949;28;8846;-70
2021/10/12 09:52:46;;;;;;;;;27.75;27.75;;;;;22.53;44.02;101000.84;5033094;28;8842;-69
2021/10/12 09:55:41;;;;;;;;;72.75;45.00;;;;;22.69;44.12;100995.56;5032005;28;8888;-68
2021/10/12 09:58:38;;;;;;;;;26.50;26.50;;;;;22.46;44.22;100991.19;5031759;28;8873;-70
2021/10/12 10:01:34;;;;;;;;;27.00;24.75;;;;;22.85;43.48;100992.31;5032786;28;8964;-70
2021/10/12 10:04:30;;;;;;;;;38.25;30.50;;;;;23.00;42.84;100986.25;5031607;28;8976;-70
2021/10/12 10:07:06;;;;;;;;;27.00;26.50;;;;;23.41;42.33;100985.66;5032883;28;8846;-70
2021/10/12 10:09:44;;;;;;;;;27.25;27.25;;;;;23.17;43.51;100978.94;5032720;28;8850;-70
2021/10/12 10:12:39;;;;;;;;;25.50;25.50;;;;;23.41;42.33;100977.19;5041059;28;8911;-71
2021/10/12 10:15:35;;;;;;;;;24.75;24.75;;;;;23.52;42.75;100974.28;5031880;28;8899;-71
2021/10/12 10:18:33;;;;;;;;;28.25;28.25;;;;;23.76;42.34;100962.03;5031907;28;8857;-71
2021/10/12 10:21:29;;;;;;;;;29.75;29.75;;;;;23.52;43.16;100957.34;5032416;28;8846;-71
2021/10/12 10:24:37;;;;;;;;;34.50;31.25;;;;;23.33;42.99;100953.06;5038319;28;8915;-72
2021/10/12 10:27:35;;;;;;;;;37.00;33.00;;;;;23.17;43.89;100949.91;5038694;28;8854;-71
2021/10/12 10:30:26;;;;;;;;;28.00;26.50;;;;;23.71;43.07;100945.56;5039239;28;8851;-71
2021/10/12 10:33:04;;;;;;;;;39.00;33.25;;;;;22.67;44.66;100945.25;5039708;28;8955;-71
2021/10/12 10:35:59;;;;;;;;;30.50;30.00;;;;;23.38;43.63;100951.78;5039283;28;8894;-71
2021/10/12 10:38:56;;;;;;;;;30.25;30.00;;;;;22.39;45.91;100945.31;5038386;28;8888;-70
2021/10/12 10:41:51;;;;;;;;;33.50;29.50;;;;;23.07;44.89;100945.13;5030437;28;9501;-71
2021/10/12 10:44:54;;;;;;;;;32.50;27.75;;;;;23.46;43.97;100933.59;5038883;28;8873;-71
2021/10/12 10:47:50;;;;;;;;;32.25;30.25;;;;;23.48;43.95;100929.16;5046721;28;8844;-71
2021/10/12 10:50:47;;;;;;;;;12.25;12.25;;;;;22.35;46.23;100919.16;5051989;28;9589;-71
2021/10/12 10:53:42;;;;;;;;;26.25;26.25;;;;;22.39;45.82;100923.59;5057263;28;8899;-71
2021/10/12 10:57:10;;;;;;;;;25.75;25.75;;;;;23.30;43.65;100915.16;5057437;28;8859;-71
2021/10/12 11:00:12;;;;;;;;;25.00;24.75;;;;;23.28;44.03;100911.94;5057391;28;8860;-69
2021/10/12 11:03:35;;;;;;;;;16.50;16.50;;;;;23.56;43.69;100910.16;5073117;28;8856;-71
2021/10/12 11:06:21;;;;;;;;;22.75;22.75;;;;;24.17;42.79;100912.50;5048103;28;9577;-71
2021/10/12 11:09:17;;;;;;;;;24.00;24.00;;;;;23.99;42.72;100904.97;5037676;28;8850;-72
2021/10/12 11:11:44;;;;;;;;;25.50;24.75;;;;;23.14;44.00;100912.03;5049731;28;8925;-74
2021/10/12 11:14:40;;;;;;;;;27.00;27.00;;;;;23.57;43.15;100895.63;5049665;28;8867;-73
2021/10/12 11:17:09;;;;;;;;;24.25;24.25;;;;;22.31;46.48;100891.00;5058431;28;8847;-72
2021/10/12 11:19:58;;;;;;;;;21.50;21.50;;;;;21.92;47.35;100891.84;5041289;28;8862;-72
2021/10/12 11:22:30;;;;;;;;;20.00;16.75;;;;;22.48;46.50;100887.34;5041553;28;8855;-72
2021/10/12 11:24:57;;;;;;;;;22.25;21.25;;;;;22.89;45.87;100886.78;5058681;28;8847;-72
2021/10/12 11:27:41;;;;;;;;;22.50;21.75;;;;;23.73;44.27;100889.47;5058291;28;8867;-71
2021/10/12 11:30:18;;;;;;;;;23.50;23.50;;;;;22.52;46.19;100880.88;5059045;28;8860;-72
2021/10/12 11:32:55;;;;;;;;;22.50;22.50;;;;;23.55;44.17;100881.13;5058072;28;8947;-71
2021/10/12 11:35:51;;;;;;;;;22.00;21.00;;;;;22.51;46.61;100874.44;5046607;28;8828;-73
2021/10/12 11:38:28;;;;;;;;;22.25;22.25;;;;;23.61;45.04;100877.88;5049576;28;8876;-71
2021/10/12 11:40:56;;;;;;;;;25.75;25.75;;;;;23.40;44.38;100874.00;5067567;28;8966;-73
2021/10/12 11:43:55;;;;;;;;;24.75;24.25;;;;;23.12;45.18;100868.53;5053930;28;8852;-73
2021/10/12 11:46:54;;;;;;;;;16.50;14.00;;;;;23.56;44.50;100873.47;5054200;28;8859;-72
2021/10/12 11:49:50;;;;;;;;;19.75;19.75;;;;;23.18;45.43;100872.53;5054169;28;8867;-72
2021/10/12 11:52:48;;;;;;;;;22.25;21.50;;;;;23.66;44.77;100868.97;5042154;28;9032;-72
2021/10/12 11:55:46;;;;;;;;;22.25;22.00;;;;;22.94;45.95;100869.44;5054728;28;9625;-72
2021/10/12 11:58:14;;;;;;;;;20.25;19.75;;;;;22.59;47.03;100873.19;5037250;28;8863;-71
2021/10/12 12:01:14;;;;;;;;;21.25;21.25;;;;;22.37;47.77;100874.47;5040348;28;8929;-71
2021/10/12 12:04:26;;;;;;;;;23.75;23.75;;;;;22.48;47.00;100873.25;5053591;28;8876;-72
2021/10/12 12:07:22;;;;;;;;;22.25;21.50;;;;;22.10;48.25;100868.53;5039876;28;8902;-71
2021/10/12 12:09:51;;;;;;;;;19.75;19.75;;;;;22.49;47.20;100862.78;5036844;28;8878;-71
2021/10/12 12:12:19;;;;;;;;;21.25;21.25;;;;;22.39;47.65;100869.22;5054447;28;8876;-72
2021/10/12 12:15:15;;;;;;;;;23.00;21.75;;;;;21.73;49.22;100864.13;5065261;28;8942;-71
2021/10/12 12:18:23;;;;;;;;;25.75;25.00;;;;;21.95;48.63;100858.47;5054544;28;8879;-72
2021/10/12 12:21:32;;;;;;;;;20.25;20.25;;;;;21.76;49.45;100859.69;5054026;28;8888;-72
2021/10/12 12:24:28;;;;;;;;;19.25;19.25;;;;;21.75;49.42;100850.44;5053698;28;8852;-73
2021/10/12 12:27:26;;;;;;;;;19.25;18.00;;;;;21.95;49.03;100859.25;5072180;28;8881;-72
2021/10/12 12:30:36;;;;;;;;;23.75;22.75;;;;;21.56;50.54;100860.09;5073560;28;8841;-72
2021/10/12 12:33:41;;;;;;;;;22.75;22.75;;;;;21.46;50.79;100851.63;5060701;28;8851;-72
2021/10/12 12:36:36;;;;;;;;;19.75;19.75;;;;;21.24;51.00;100851.63;5046870;28;8837;-74
2021/10/12 12:39:41;;;;;;;;;21.75;21.25;;;;;21.07;51.34;100850.34;5054154;28;9604;-72
2021/10/12 12:42:38;;;;;;;;;21.50;20.75;;;;;21.00;50.94;100838.28;5052988;28;9561;-72
2021/10/12 12:45:34;;;;;;;;;22.50;22.50;;;;;20.83;51.57;100837.06;5058371;28;8879;-72
2021/10/12 12:48:29;;;;;;;;;22.00;21.50;;;;;20.82;51.77;100827.81;5053509;28;9601;-72
2021/10/12 12:51:29;;;;;;;;;21.25;21.25;;;;;21.13;50.67;100830.28;5053999;28;8894;-71
2021/10/12 12:54:48;;;;;;;;;19.75;19.75;;;;;20.65;52.11;100828.56;5058448;28;8950;-68
2021/10/12 12:57:35;;;;;;;;;21.00;21.00;;;;;20.59;52.67;100820.91;5052165;28;8843;-71
2021/10/12 13:00:33;;;;;;;;;17.50;17.50;;;;;20.66;52.68;100830.19;5041114;28;8851;-72
2021/10/12 13:03:03;;;;;;;;;20.75;20.25;;;;;20.56;53.13;100833.75;5038076;28;8856;-72
2021/10/12 13:05:59;;;;;;;;;17.75;17.75;;;;;20.54;52.60;100831.31;5049400;28;8846;-73
2021/10/12 13:08:27;;;;;;;;;21.00;20.50;;;;;20.51;52.82;100829.31;5036743;28;8857;-73